createdAt,value
2023-03-06T00:00:18.456Z,6.40
2023-03-06T00:02:45.605Z,6.50
2023-03-06T00:05:13.595Z,6.40
2023-03-06T00:07:41.009Z,6.40
2023-03-06T00:10:08.841Z,6.40
2023-03-06T00:12:35.724Z,6.40
2023-03-06T00:15:05.263Z,6.40
2023-03-06T00:17:32.500Z,6.30
2023-03-06T00:19:59.316Z,6.30
2023-03-06T00:22:26.242Z,6.30
2023-03-06T00:24:56.191Z,6.20
2023-03-06T00:27:26.213Z,6.20
2023-03-06T00:29:57.622Z,6.10
2023-03-06T00:32:25.432Z,6.10
2023-03-06T00:34:53.917Z,6.00
2023-03-06T00:37:22.228Z,6.10
2023-03-06T00:39:49.887Z,6.00
2023-03-06T00:42:18.414Z,6.00
2023-03-06T00:44:45.790Z,6.00
2023-03-06T00:47:12.939Z,6.00
2023-03-06T00:49:39.831Z,6.00
2023-03-06T00:52:06.828Z,6.00
2023-03-06T00:54:33.705Z,6.00
2023-03-06T00:57:00.664Z,6.00
2023-03-06T00:59:30.232Z,6.00
2023-03-06T01:01:57.187Z,6.10
2023-03-06T01:04:25.604Z,6.00
2023-03-06T01:06:52.559Z,6.00
2023-03-06T01:09:19.451Z,6.00
2023-03-06T01:11:46.409Z,6.00
2023-03-06T01:14:13.422Z,6.00
2023-03-06T01:16:40.376Z,6.00
2023-03-06T01:19:07.365Z,6.00
2023-03-06T01:21:34.313Z,6.00
2023-03-06T01:24:01.196Z,6.00
2023-03-06T01:26:28.226Z,6.00
2023-03-06T01:28:57.400Z,6.00
2023-03-06T01:31:25.153Z,6.00
2023-03-06T01:33:52.555Z,6.00
2023-03-06T01:36:19.571Z,6.00
2023-03-06T01:38:46.452Z,6.00
2023-03-06T01:41:15.881Z,6.00
2023-03-06T01:43:45.514Z,6.00
2023-03-06T01:46:42.109Z,5.90
2023-03-06T01:49:23.988Z,5.90
2023-03-06T01:52:11.841Z,5.80
2023-03-06T01:54:52.684Z,5.80
2023-03-06T01:57:22.674Z,5.70
2023-03-06T01:59:55.346Z,5.70
2023-03-06T02:02:25.113Z,5.60
2023-03-06T02:04:52.255Z,5.60
2023-03-06T02:07:20.856Z,5.60
2023-03-06T02:09:47.779Z,5.60
2023-03-06T02:12:19.032Z,5.50
2023-03-06T02:14:46.992Z,5.50
2023-03-06T02:17:16.692Z,5.50
2023-03-06T02:20:11.757Z,5.50
2023-03-06T02:22:48.101Z,5.50
2023-03-06T02:25:39.793Z,5.50
2023-03-06T02:28:10.331Z,5.50
2023-03-06T02:30:39.599Z,5.50
2023-03-06T02:33:06.875Z,5.50
2023-03-06T02:35:36.827Z,5.50
2023-03-06T02:38:08.983Z,5.40
2023-03-06T02:40:36.678Z,5.40
2023-03-06T02:43:04.112Z,5.40
2023-03-06T02:45:45.357Z,5.40
2023-03-06T02:48:14.556Z,5.40
2023-03-06T02:50:42.770Z,5.40
2023-03-06T02:53:11.240Z,5.40
2023-03-06T02:55:38.197Z,5.40
2023-03-06T02:58:06.132Z,5.40
2023-03-06T03:00:33.987Z,5.40
2023-03-06T03:03:03.825Z,5.40
2023-03-06T03:05:32.325Z,5.40
2023-03-06T03:08:06.047Z,5.50
2023-03-06T03:10:33.678Z,5.50
2023-03-06T03:13:00.706Z,5.50
2023-03-06T03:15:28.277Z,5.50
2023-03-06T03:17:55.108Z,5.40
2023-03-06T03:20:22.668Z,5.40
2023-03-06T03:22:52.579Z,5.40
2023-03-06T03:25:20.036Z,5.40
2023-03-06T03:27:47.664Z,5.50
2023-03-06T03:30:15.510Z,5.50
2023-03-06T03:32:42.947Z,5.50
2023-03-06T03:35:11.230Z,5.50
2023-03-06T03:37:38.590Z,5.50
2023-03-06T03:40:07.231Z,5.50
2023-03-06T03:42:34.349Z,5.50
2023-03-06T03:45:01.597Z,5.40
2023-03-06T03:47:28.602Z,5.40
2023-03-06T03:49:55.543Z,5.30
2023-03-06T03:52:22.910Z,5.30
2023-03-06T03:54:49.870Z,5.30
2023-03-06T03:57:16.818Z,5.30
2023-03-06T03:59:49.317Z,5.30
2023-03-06T04:02:23.827Z,5.30
2023-03-06T04:05:02.810Z,5.30
2023-03-06T04:07:29.822Z,5.30
2023-03-06T04:09:57.106Z,5.30
2023-03-06T04:12:24.479Z,5.30
2023-03-06T04:14:51.497Z,5.30
2023-03-06T04:17:18.611Z,5.30
2023-03-06T04:19:45.626Z,5.30
2023-03-06T04:22:12.499Z,5.30
2023-03-06T04:24:40.110Z,5.30
2023-03-06T04:27:07.037Z,5.30
2023-03-06T04:29:34.031Z,5.30
2023-03-06T04:32:01.066Z,5.30
2023-03-06T04:34:28.458Z,5.30
2023-03-06T04:36:55.401Z,5.30
2023-03-06T04:39:23.097Z,5.30
2023-03-06T04:41:50.289Z,5.30
2023-03-06T04:44:17.305Z,5.40
2023-03-06T04:46:44.149Z,5.40
2023-03-06T04:49:11.113Z,5.30
2023-03-06T04:51:37.963Z,5.40
2023-03-06T04:54:05.411Z,5.40
2023-03-06T04:56:32.393Z,5.40
2023-03-06T04:58:59.254Z,5.40
2023-03-06T05:01:26.184Z,5.40
2023-03-06T05:03:53.145Z,5.40
2023-03-06T05:06:20.035Z,5.50
2023-03-06T05:08:47.831Z,5.50
2023-03-06T05:11:14.715Z,5.40
2023-03-06T05:13:41.573Z,5.50
2023-03-06T05:16:08.819Z,5.40
2023-03-06T05:18:36.581Z,5.40
2023-03-06T05:21:04.911Z,5.40
2023-03-06T05:23:36.225Z,5.40
2023-03-06T05:26:08.225Z,5.40
2023-03-06T05:28:35.686Z,5.40
2023-03-06T05:31:03.545Z,5.40
2023-03-06T05:33:32.647Z,5.40
2023-03-06T05:35:59.865Z,5.40
2023-03-06T05:38:26.808Z,5.40
2023-03-06T05:40:53.832Z,5.40
2023-03-06T05:43:20.873Z,5.40
2023-03-06T05:45:50.334Z,5.40
2023-03-06T05:48:17.277Z,5.40
2023-03-06T05:50:44.262Z,5.40
2023-03-06T05:53:11.184Z,5.40
2023-03-06T05:55:38.098Z,5.40
2023-03-06T05:58:04.957Z,5.40
2023-03-06T06:00:31.775Z,5.40
2023-03-06T06:03:02.171Z,5.40
2023-03-06T06:05:29.045Z,5.40
2023-03-06T06:07:56.069Z,5.40
2023-03-06T06:10:22.941Z,5.40
2023-03-06T06:12:49.790Z,5.40
2023-03-06T06:15:16.682Z,5.40
2023-03-06T06:17:43.569Z,5.40
2023-03-06T06:20:11.215Z,5.40
2023-03-06T06:22:38.369Z,5.40
2023-03-06T06:25:06.586Z,5.40
2023-03-06T06:27:33.438Z,5.40
2023-03-06T06:30:00.301Z,5.40
2023-03-06T06:32:27.213Z,5.40
2023-03-06T06:34:54.334Z,5.30
2023-03-06T06:37:21.196Z,5.40
2023-03-06T06:39:48.147Z,5.40
2023-03-06T06:42:30.969Z,5.40
2023-03-06T06:45:01.161Z,5.40
2023-03-06T06:47:28.187Z,5.40
2023-03-06T06:49:56.183Z,5.40
2023-03-06T06:52:24.544Z,5.50
2023-03-06T06:54:52.257Z,5.50
2023-03-06T06:57:19.211Z,5.50
2023-03-06T06:59:46.082Z,5.50
2023-03-06T07:02:14.272Z,5.50
2023-03-06T07:04:56.200Z,5.50
2023-03-06T07:07:28.887Z,5.60
2023-03-06T07:09:57.085Z,5.60
2023-03-06T07:12:25.121Z,5.60
2023-03-06T07:14:52.403Z,5.60
2023-03-06T07:17:20.199Z,5.60
2023-03-06T07:19:48.234Z,5.60
2023-03-06T07:22:15.287Z,5.70
2023-03-06T07:24:42.581Z,5.70
2023-03-06T07:27:09.786Z,5.70
2023-03-06T07:29:36.937Z,5.80
2023-03-06T07:32:04.516Z,5.80
2023-03-06T07:34:31.849Z,5.80
2023-03-06T07:36:58.912Z,5.90
2023-03-06T07:39:28.061Z,5.90
2023-03-06T07:41:55.165Z,6.00
2023-03-06T07:44:23.531Z,6.00
2023-03-06T07:46:52.576Z,6.00
2023-03-06T07:49:20.215Z,6.10
2023-03-06T07:51:47.109Z,6.10
2023-03-06T07:54:13.964Z,6.20
2023-03-06T07:56:40.856Z,6.20
2023-03-06T07:59:07.752Z,6.30
2023-03-06T08:01:36.451Z,6.40
2023-03-06T08:04:03.679Z,6.50
2023-03-06T08:06:30.576Z,6.50
2023-03-06T08:08:57.719Z,6.60
2023-03-06T08:11:27.002Z,6.70
2023-03-06T08:13:54.874Z,6.80
2023-03-06T08:16:23.806Z,6.90
2023-03-06T08:18:51.161Z,7.00
2023-03-06T08:21:20.656Z,7.10
2023-03-06T08:23:48.309Z,7.10
2023-03-06T08:26:22.013Z,7.20
2023-03-06T08:28:51.469Z,7.20
2023-03-06T08:31:21.433Z,7.20
2023-03-06T08:33:48.334Z,7.30
2023-03-06T08:36:15.344Z,7.30
2023-03-06T08:38:42.178Z,7.30
2023-03-06T08:41:09.073Z,7.40
2023-03-06T08:43:36.193Z,7.40
2023-03-06T08:46:03.557Z,7.50
2023-03-06T08:48:30.785Z,7.50
2023-03-06T08:50:57.917Z,7.50
2023-03-06T08:53:40.459Z,7.50
2023-03-06T08:56:14.792Z,7.60
2023-03-06T08:58:41.655Z,7.70
2023-03-06T09:01:16.300Z,7.70
2023-03-06T09:03:43.406Z,7.70
2023-03-06T09:06:10.276Z,7.80
2023-03-06T09:08:37.213Z,7.90
2023-03-06T09:11:04.696Z,7.90
2023-03-06T09:13:31.545Z,8.00
2023-03-06T09:15:58.359Z,8.10
2023-03-06T09:18:25.429Z,8.20
2023-03-06T09:20:52.238Z,8.20
2023-03-06T09:23:19.067Z,8.30
2023-03-06T09:25:46.293Z,8.40
2023-03-06T09:28:13.163Z,8.50
2023-03-06T09:30:41.165Z,8.60
2023-03-06T09:33:08.270Z,8.60
2023-03-06T09:35:35.688Z,8.70
2023-03-06T09:38:02.571Z,8.80
2023-03-06T09:40:58.800Z,8.80
2023-03-06T09:43:41.580Z,8.90
2023-03-06T09:46:42.732Z,9.00
2023-03-06T09:49:15.652Z,9.00
2023-03-06T09:51:55.425Z,8.90
2023-03-06T09:54:34.352Z,8.90
2023-03-06T09:57:01.201Z,8.90
2023-03-06T09:59:28.652Z,8.90
2023-03-06T10:02:21.984Z,9.00
2023-03-06T10:04:53.766Z,9.10
2023-03-06T10:07:42.348Z,9.30
2023-03-06T10:10:18.474Z,9.40
2023-03-06T10:13:05.902Z,9.40
2023-03-06T10:15:36.188Z,9.40
2023-03-06T10:18:05.222Z,9.40
2023-03-06T10:20:45.631Z,9.30
2023-03-06T10:23:15.298Z,9.30
2023-03-06T10:26:01.752Z,9.30
2023-03-06T10:28:35.478Z,9.40
2023-03-06T10:31:08.607Z,9.50
2023-03-06T10:34:13.767Z,9.60
2023-03-06T10:36:40.632Z,9.70
2023-03-06T10:39:16.247Z,9.80
2023-03-06T10:41:45.323Z,9.90
2023-03-06T10:44:12.268Z,10.00
2023-03-06T10:46:45.308Z,10.00
2023-03-06T10:49:21.049Z,10.00
2023-03-06T10:52:13.900Z,9.90
2023-03-06T10:54:43.840Z,9.80
2023-03-06T10:57:31.741Z,9.70
2023-03-06T11:00:01.367Z,9.80
2023-03-06T11:02:31.340Z,9.80
2023-03-06T11:05:01.133Z,9.80
2023-03-06T11:07:36.018Z,9.90
2023-03-06T11:10:19.612Z,10.00
2023-03-06T11:13:02.785Z,10.10
2023-03-06T11:15:30.202Z,10.20
2023-03-06T11:18:21.650Z,10.30
2023-03-06T11:20:53.128Z,10.30
2023-03-06T11:23:35.144Z,10.50
2023-03-06T11:26:15.837Z,10.60
2023-03-06T11:28:46.459Z,10.70
2023-03-06T11:31:22.659Z,10.80
2023-03-06T11:33:56.488Z,11.00
2023-03-06T11:36:49.526Z,11.10
2023-03-06T11:39:37.967Z,11.10
2023-03-06T11:42:26.588Z,11.20
2023-03-06T11:44:57.873Z,11.20
2023-03-06T11:48:09.425Z,11.20
2023-03-06T11:50:41.351Z,11.20
2023-03-06T11:53:15.312Z,11.20
2023-03-06T11:55:57.223Z,11.00
2023-03-06T11:58:33.448Z,10.90
2023-03-06T12:01:10.224Z,10.80
2023-03-06T12:03:48.463Z,10.70
2023-03-06T12:06:43.999Z,10.70
2023-03-06T12:09:14.136Z,10.70
2023-03-06T12:11:49.987Z,10.80
2023-03-06T12:14:19.975Z,10.90
2023-03-06T12:17:04.032Z,10.90
2023-03-06T12:20:10.347Z,10.80
2023-03-06T12:23:18.281Z,10.70
2023-03-06T12:25:54.355Z,10.60
2023-03-06T12:28:58.212Z,10.60
2023-03-06T12:31:41.249Z,10.60
2023-03-06T12:34:20.849Z,10.60
2023-03-06T12:37:06.314Z,10.60
2023-03-06T12:39:48.257Z,10.60
2023-03-06T12:42:24.218Z,10.60
2023-03-06T12:44:56.962Z,10.60
2023-03-06T12:47:28.206Z,10.70
2023-03-06T12:50:07.564Z,10.80
2023-03-06T12:52:35.356Z,11.00
2023-03-06T12:55:07.504Z,11.20
2023-03-06T12:57:34.432Z,11.30
2023-03-06T13:00:01.324Z,11.50
2023-03-06T13:02:34.078Z,11.50
2023-03-06T13:05:29.040Z,11.50
2023-03-06T13:07:58.961Z,11.60
2023-03-06T13:10:36.283Z,11.60
2023-03-06T13:13:05.190Z,11.60
2023-03-06T13:15:37.178Z,11.60
2023-03-06T13:18:22.569Z,11.70
2023-03-06T13:20:56.153Z,11.90
2023-03-06T13:23:35.738Z,12.10
2023-03-06T13:26:11.424Z,12.40
2023-03-06T13:28:49.848Z,12.50
2023-03-06T13:31:51.873Z,12.60
2023-03-06T13:34:37.700Z,12.70
2023-03-06T13:37:13.853Z,12.60
2023-03-06T13:39:56.048Z,12.50
2023-03-06T13:42:36.175Z,12.30
2023-03-06T13:45:25.771Z,12.30
2023-03-06T13:48:21.438Z,12.20
2023-03-06T13:50:46.228Z,12.10
2023-03-06T13:53:50.674Z,12.00
2023-03-06T13:56:39.562Z,12.00
2023-03-06T13:59:28.185Z,12.00
2023-03-06T14:02:24.253Z,12.00
2023-03-06T14:05:01.064Z,12.00
2023-03-06T14:07:40.493Z,12.00
2023-03-06T14:10:13.625Z,11.90
2023-03-06T14:12:49.582Z,11.90
2023-03-06T14:15:22.273Z,11.80
2023-03-06T14:17:59.379Z,11.70
2023-03-06T14:20:40.342Z,11.50
2023-03-06T14:23:22.481Z,11.30
2023-03-06T14:26:15.237Z,11.20
2023-03-06T14:28:44.595Z,11.10
2023-03-06T14:31:30.070Z,11.10
2023-03-06T14:34:03.354Z,11.00
2023-03-06T14:36:36.124Z,11.00
2023-03-06T14:39:08.852Z,10.90
2023-03-06T14:41:36.670Z,10.90
2023-03-06T14:44:19.436Z,10.80
2023-03-06T14:46:57.918Z,10.70
2023-03-06T14:49:26.371Z,10.60
2023-03-06T14:51:55.953Z,10.60
2023-03-06T14:54:28.711Z,10.50
2023-03-06T14:57:08.052Z,10.50
2023-03-06T14:59:53.891Z,10.40
2023-03-06T15:02:23.455Z,10.30
2023-03-06T15:05:20.065Z,10.20
2023-03-06T15:07:47.115Z,10.20
2023-03-06T15:10:26.370Z,10.10
2023-03-06T15:12:53.603Z,10.00
2023-03-06T15:15:30.075Z,9.90
2023-03-06T15:17:57.373Z,9.80
2023-03-06T15:20:45.454Z,9.80
2023-03-06T15:23:19.207Z,9.80
2023-03-06T15:26:00.721Z,9.80
2023-03-06T15:28:33.672Z,9.80
2023-03-06T15:31:20.896Z,9.70
2023-03-06T15:34:12.715Z,9.60
2023-03-06T15:36:51.400Z,9.60
2023-03-06T15:39:39.448Z,9.50
2023-03-06T15:42:15.223Z,9.40
2023-03-06T15:44:42.103Z,9.30
2023-03-06T15:47:12.084Z,9.30
2023-03-06T15:49:39.786Z,9.20
2023-03-06T15:52:07.226Z,9.10
2023-03-06T15:54:34.566Z,9.10
2023-03-06T15:57:05.343Z,9.00
2023-03-06T15:59:42.897Z,8.90
2023-03-06T16:02:22.246Z,8.90
2023-03-06T16:04:49.347Z,8.80
2023-03-06T16:07:16.742Z,8.80
2023-03-06T16:09:44.412Z,8.80
2023-03-06T16:12:17.453Z,8.80
2023-03-06T16:14:47.256Z,8.70
2023-03-06T16:17:14.963Z,8.80
2023-03-06T16:19:43.110Z,8.80
2023-03-06T16:22:09.954Z,8.80
2023-03-06T16:24:37.254Z,8.70
2023-03-06T16:27:04.727Z,8.60
2023-03-06T16:29:31.921Z,8.60
2023-03-06T16:32:01.649Z,8.50
2023-03-06T16:34:28.714Z,8.50
2023-03-06T16:36:55.640Z,8.40
2023-03-06T16:39:23.729Z,8.40
2023-03-06T16:41:50.657Z,8.30
2023-03-06T16:44:17.775Z,8.20
2023-03-06T16:46:47.009Z,8.20
2023-03-06T16:49:21.365Z,8.10
2023-03-06T16:51:49.199Z,8.10
2023-03-06T16:54:16.698Z,8.00
2023-03-06T16:56:44.351Z,7.90
2023-03-06T16:59:12.339Z,7.90
2023-03-06T17:01:43.098Z,7.90
2023-03-06T17:04:10.431Z,7.80
2023-03-06T17:06:38.026Z,7.80
2023-03-06T17:09:05.432Z,7.80
2023-03-06T17:11:32.393Z,7.80
2023-03-06T17:13:59.440Z,7.80
2023-03-06T17:16:26.586Z,7.80
2023-03-06T17:18:55.113Z,7.80
2023-03-06T17:21:22.089Z,7.80
2023-03-06T17:23:50.823Z,7.80
2023-03-06T17:26:19.181Z,7.70
2023-03-06T17:28:47.146Z,7.80
2023-03-06T17:31:17.291Z,7.80
2023-03-06T17:33:44.736Z,7.80
2023-03-06T17:36:12.652Z,7.80
2023-03-06T17:38:39.753Z,7.80
2023-03-06T17:41:08.070Z,7.90
2023-03-06T17:43:36.815Z,7.80
2023-03-06T17:46:05.027Z,7.90
2023-03-06T17:48:32.206Z,7.90
2023-03-06T17:50:59.127Z,7.90
2023-03-06T17:53:26.049Z,7.80
2023-03-06T17:55:53.204Z,7.90
2023-03-06T17:58:20.119Z,7.90
2023-03-06T18:00:47.041Z,7.80
2023-03-06T18:03:13.984Z,7.80
2023-03-06T18:05:41.073Z,7.80
2023-03-06T18:08:10.222Z,7.80
2023-03-06T18:10:43.578Z,7.80
2023-03-06T18:13:11.141Z,7.80
2023-03-06T18:15:41.873Z,7.70
2023-03-06T18:18:09.203Z,7.80
2023-03-06T18:20:41.605Z,7.80
2023-03-06T18:23:08.755Z,7.80
2023-03-06T18:25:35.879Z,7.80
2023-03-06T18:28:02.824Z,7.70
2023-03-06T18:30:29.698Z,7.70
2023-03-06T18:32:56.502Z,7.60
2023-03-06T18:35:23.436Z,7.60
2023-03-06T18:37:50.340Z,7.60
2023-03-06T18:40:17.476Z,7.50
2023-03-06T18:42:44.427Z,7.50
2023-03-06T18:45:12.854Z,7.50
2023-03-06T18:47:40.511Z,7.50
2023-03-06T18:50:08.912Z,7.40
2023-03-06T18:52:35.764Z,7.50
2023-03-06T18:55:02.692Z,7.40
2023-03-06T18:57:30.466Z,7.40
2023-03-06T18:59:57.534Z,7.40
2023-03-06T19:02:24.571Z,7.40
2023-03-06T19:04:52.884Z,7.40
2023-03-06T19:07:19.854Z,7.40
2023-03-06T19:09:49.020Z,7.40
2023-03-06T19:12:17.439Z,7.40
2023-03-06T19:14:44.793Z,7.30
2023-03-06T19:17:11.747Z,7.30
2023-03-06T19:19:38.656Z,7.40
2023-03-06T19:22:05.600Z,7.30
2023-03-06T19:24:35.469Z,7.30
2023-03-06T19:27:02.288Z,7.30
2023-03-06T19:29:29.207Z,7.30
2023-03-06T19:31:57.264Z,7.20
2023-03-06T19:34:24.423Z,7.20
2023-03-06T19:36:51.628Z,7.10
2023-03-06T19:39:18.573Z,7.10
2023-03-06T19:41:47.486Z,7.10
2023-03-06T19:44:16.169Z,7.10
2023-03-06T19:46:43.669Z,7.10
2023-03-06T19:49:18.046Z,7.10
2023-03-06T19:51:45.321Z,7.10
2023-03-06T19:54:12.710Z,7.10
2023-03-06T19:56:40.024Z,7.10
2023-03-06T19:59:06.947Z,7.10
2023-03-06T20:01:34.418Z,7.10
2023-03-06T20:04:01.811Z,7.10
2023-03-06T20:06:33.348Z,7.10
2023-03-06T20:09:02.333Z,7.10
2023-03-06T20:11:30.134Z,7.10
2023-03-06T20:13:58.747Z,7.10
2023-03-06T20:16:28.062Z,7.10
2023-03-06T20:18:58.133Z,7.10
2023-03-06T20:21:25.898Z,7.10
2023-03-06T20:23:54.480Z,7.10
2023-03-06T20:26:21.400Z,7.10
2023-03-06T20:28:48.312Z,7.10
2023-03-06T20:31:17.750Z,7.10
2023-03-06T20:33:49.591Z,7.10
2023-03-06T20:36:31.185Z,7.10
2023-03-06T20:39:05.444Z,7.10
2023-03-06T20:41:32.903Z,7.10
2023-03-06T20:44:01.282Z,7.10
2023-03-06T20:46:28.475Z,7.10
2023-03-06T20:48:56.032Z,7.10
2023-03-06T20:51:25.726Z,7.20
2023-03-06T20:53:53.281Z,7.20
2023-03-06T20:56:23.552Z,7.20
2023-03-06T20:58:50.974Z,7.20
2023-03-06T21:01:25.703Z,7.30
2023-03-06T21:03:53.299Z,7.30
2023-03-06T21:06:21.052Z,7.30
2023-03-06T21:08:48.779Z,7.30
2023-03-06T21:11:16.458Z,7.30
2023-03-06T21:13:43.482Z,7.30
2023-03-06T21:16:13.256Z,7.30
2023-03-06T21:18:40.286Z,7.30
2023-03-06T21:21:13.581Z,7.30
2023-03-06T21:23:40.756Z,7.40
2023-03-06T21:26:07.889Z,7.40
2023-03-06T21:28:34.724Z,7.40
2023-03-06T21:31:02.391Z,7.40
2023-03-06T21:33:29.303Z,7.50
2023-03-06T21:35:56.272Z,7.50
2023-03-06T21:38:23.306Z,7.50
2023-03-06T21:40:50.408Z,7.50
2023-03-06T21:43:17.610Z,7.50
2023-03-06T21:45:46.279Z,7.60
2023-03-06T21:48:14.894Z,7.60
2023-03-06T21:50:42.313Z,7.60
2023-03-06T21:53:09.634Z,7.60
2023-03-06T21:55:40.769Z,7.60
2023-03-06T21:58:07.614Z,7.60
2023-03-06T22:00:36.424Z,7.60
2023-03-06T22:03:04.757Z,7.70
2023-03-06T22:05:32.070Z,7.60
2023-03-06T22:07:59.481Z,7.60
2023-03-06T22:10:26.329Z,7.70
2023-03-06T22:12:53.228Z,7.60
2023-03-06T22:15:21.813Z,7.70
2023-03-06T22:17:48.832Z,7.60
2023-03-06T22:20:15.923Z,7.60
2023-03-06T22:22:43.678Z,7.60
2023-03-06T22:25:11.910Z,7.60
2023-03-06T22:27:38.933Z,7.60
2023-03-06T22:30:06.488Z,7.60
2023-03-06T22:32:33.658Z,7.60
2023-03-06T22:35:00.642Z,7.50
2023-03-06T22:37:27.518Z,7.60
2023-03-06T22:39:54.344Z,7.60
2023-03-06T22:42:21.256Z,7.60
2023-03-06T22:44:48.115Z,7.50
2023-03-06T22:47:14.972Z,7.60
2023-03-06T22:49:41.907Z,7.60
2023-03-06T22:52:08.751Z,7.60
2023-03-06T22:54:35.762Z,7.60
2023-03-06T22:57:03.028Z,7.60
2023-03-06T22:59:30.036Z,7.60
2023-03-06T23:01:56.886Z,7.60
2023-03-06T23:04:23.748Z,7.60
2023-03-06T23:06:50.675Z,7.60
2023-03-06T23:09:22.715Z,7.60
2023-03-06T23:12:09.127Z,7.70
2023-03-06T23:14:54.969Z,7.60
2023-03-06T23:17:40.196Z,7.60
2023-03-06T23:20:25.659Z,7.60
2023-03-06T23:23:11.371Z,7.60
2023-03-06T23:25:41.225Z,7.60
2023-03-06T23:28:08.230Z,7.60
2023-03-06T23:30:35.102Z,7.60
2023-03-06T23:33:01.976Z,7.60
2023-03-06T23:35:28.884Z,7.60
2023-03-06T23:37:55.750Z,7.60
2023-03-06T23:40:22.755Z,7.60
2023-03-06T23:42:49.630Z,7.70
2023-03-06T23:45:16.742Z,7.70
2023-03-06T23:47:43.588Z,7.70
2023-03-06T23:50:11.257Z,7.70
2023-03-06T23:52:38.813Z,7.70
2023-03-06T23:55:06.499Z,7.70
2023-03-06T23:57:33.607Z,7.70
